Terminal Aerodrome Forecast
Issued by NWS

Home | Current Version | Previous Version | Graphics & Text | Print | Product List | Glossary On
Versions: 1 2 3 4 5 6 7 8 9 10 11 12 13 14 15 16 17 18 19 20 21 22 23 24 25 26
000
FTUS43 KICT 290735 AAA
TAFCNU
TAF AMD
KCNU 290735Z 2908/3006 16007KT P6SM VCTS BKN020CB OVC040
      TEMPO 2908/2912 VRB20G40KT 1/2SM +TSRA OVC010CB
     FM291500 20010KT P6SM BKN100
     FM300100 20005KT P6SM BKN120=

USA.gov is the U.S. government's official web portal to all federal, state and local government web resources and services.